createdAt,value
2023-09-08T00:02:30.373Z,99135.03
2023-09-08T00:04:57.220Z,99135.06
2023-09-08T00:07:24.061Z,99130.59
2023-09-08T00:09:50.926Z,99133.22
2023-09-08T00:12:18.133Z,99138.66
2023-09-08T00:14:45.326Z,99136.97
2023-09-08T00:17:12.233Z,99134.44
2023-09-08T00:19:39.759Z,99139.66
2023-09-08T00:22:07.584Z,99135.34
2023-09-08T00:24:34.770Z,99136.19
2023-09-08T00:27:01.646Z,99128.41
2023-09-08T00:29:28.672Z,99126.81
2023-09-08T00:31:55.608Z,99126.97
2023-09-08T00:34:22.349Z,99130.53
2023-09-08T00:36:49.024Z,99119.13
2023-09-08T00:39:15.742Z,99130.28
2023-09-08T00:41:42.432Z,99127.06
2023-09-08T00:44:10.320Z,99123.69
2023-09-08T00:46:37.364Z,99125.63
2023-09-08T00:49:04.364Z,99119.63
2023-09-08T00:51:31.399Z,99120.47
2023-09-08T00:53:58.291Z,99121.16
2023-09-08T00:56:25.648Z,99124.88
2023-09-08T00:58:52.466Z,99125.19
2023-09-08T01:01:19.199Z,99121.66
2023-09-08T01:03:45.932Z,99118.44
2023-09-08T01:06:13.579Z,99119.44
2023-09-08T01:08:40.760Z,99115.22
2023-09-08T01:11:08.342Z,99119.88
2023-09-08T01:13:35.125Z,99125.34
2023-09-08T01:16:02.977Z,99111.81
2023-09-08T01:18:29.873Z,99107.59
2023-09-08T01:21:27.528Z,99111.31
2023-09-08T01:24:31.215Z,99115.03
2023-09-08T01:26:58.473Z,99113.31
2023-09-08T01:29:25.856Z,99108.34
2023-09-08T01:31:52.942Z,99121.41
2023-09-08T01:34:20.933Z,99119.06
2023-09-08T01:36:47.775Z,99107.03
2023-09-08T01:39:14.439Z,99108.06
2023-09-08T01:41:41.100Z,99109.06
2023-09-08T01:44:11.645Z,99108.28
2023-09-08T01:46:39.892Z,99114.63
2023-09-08T01:49:06.790Z,99118.28
2023-09-08T01:51:33.597Z,99111.38
2023-09-08T01:54:00.319Z,99108.81
2023-09-08T01:56:27.392Z,99100.38
2023-09-08T01:58:54.168Z,99104.59
2023-09-08T02:01:20.972Z,99114.13
2023-09-08T02:03:47.804Z,99112.34
2023-09-08T02:06:14.461Z,99109.81
2023-09-08T02:08:41.217Z,99113.38
2023-09-08T02:11:07.886Z,99114.31
2023-09-08T02:13:34.633Z,99118.06
2023-09-08T02:16:01.401Z,99110.47
2023-09-08T02:18:29.453Z,99105.53
2023-09-08T02:20:56.293Z,99110.06
2023-09-08T02:23:23.050Z,99107.41
2023-09-08T02:25:50.057Z,99104.22
2023-09-08T02:28:16.883Z,99107.00
2023-09-08T02:30:43.743Z,99100.25
2023-09-08T02:33:10.679Z,99094.06
2023-09-08T02:35:40.014Z,99102.94
2023-09-08T02:38:06.972Z,99097.84
2023-09-08T02:40:35.562Z,99098.16
2023-09-08T02:43:03.421Z,99101.09
2023-09-08T02:45:31.105Z,99106.31
2023-09-08T02:47:58.958Z,99102.16
2023-09-08T02:50:25.699Z,99098.75
2023-09-08T02:52:52.453Z,99102.31
2023-09-08T02:55:19.225Z,99099.84
2023-09-08T02:57:45.986Z,99088.00
2023-09-08T03:00:13.299Z,99087.13
2023-09-08T03:02:40.081Z,99087.22
2023-09-08T03:05:07.234Z,99094.28
2023-09-08T03:07:35.114Z,99097.91
2023-09-08T03:10:01.887Z,99090.91
2023-09-08T03:12:28.620Z,99093.72
2023-09-08T03:14:56.133Z,99098.06
2023-09-08T03:17:22.878Z,99093.72
2023-09-08T03:19:49.693Z,99096.50
2023-09-08T03:22:16.453Z,99096.56
2023-09-08T03:24:43.227Z,99099.34
2023-09-08T03:27:09.897Z,99100.41
2023-09-08T03:29:36.601Z,99091.66
2023-09-08T03:32:03.575Z,99095.16
2023-09-08T03:34:30.487Z,99099.50
2023-09-08T03:36:57.247Z,99094.47
2023-09-08T03:39:23.910Z,99093.75
2023-09-08T03:41:50.684Z,99097.28
2023-09-08T03:44:17.442Z,99100.03
2023-09-08T03:46:44.228Z,99104.34
2023-09-08T03:49:11.005Z,99110.41
2023-09-08T03:51:37.664Z,99103.72
2023-09-08T03:54:04.756Z,99102.03
2023-09-08T03:56:31.621Z,99095.13
2023-09-08T03:58:58.420Z,99103.09
2023-09-08T04:01:25.266Z,99107.38
2023-09-08T04:03:52.083Z,99109.16
2023-09-08T04:06:18.829Z,99107.53
2023-09-08T04:08:45.585Z,99109.44
2023-09-08T04:11:12.289Z,99113.88
2023-09-08T04:13:38.970Z,99110.56
2023-09-08T04:16:06.438Z,99117.56
2023-09-08T04:18:33.292Z,99111.50
2023-09-08T04:21:00.148Z,99115.06
2023-09-08T04:23:26.924Z,99121.00
2023-09-08T04:25:53.671Z,99118.41
2023-09-08T04:28:20.470Z,99119.41
2023-09-08T04:30:47.204Z,99124.63
2023-09-08T04:33:14.049Z,99121.44
2023-09-08T04:35:40.882Z,99126.59
2023-09-08T04:38:08.017Z,99120.59
2023-09-08T04:40:34.871Z,99120.66
2023-09-08T04:43:01.816Z,99126.84
2023-09-08T04:45:28.638Z,99119.88
2023-09-08T04:47:55.451Z,99121.59
2023-09-08T04:50:22.284Z,99125.97
2023-09-08T04:52:49.082Z,99115.59
2023-09-08T04:55:15.876Z,99118.19
2023-09-08T04:57:42.561Z,99126.94
2023-09-08T05:00:09.708Z,99125.31
2023-09-08T05:02:36.648Z,99122.72
2023-09-08T05:05:03.503Z,99120.88
2023-09-08T05:07:30.204Z,99125.41
2023-09-08T05:09:57.987Z,99125.25
2023-09-08T05:12:25.068Z,99129.47
2023-09-08T05:14:57.004Z,99133.00
2023-09-08T05:17:25.420Z,99131.25
2023-09-08T05:19:52.139Z,99129.47
2023-09-08T05:22:18.945Z,99129.53
2023-09-08T05:24:45.654Z,99122.56
2023-09-08T05:27:12.482Z,99124.97
2023-09-08T05:29:39.326Z,99130.19
2023-09-08T05:32:06.189Z,99141.34
2023-09-08T05:34:32.971Z,99133.44
2023-09-08T05:36:59.728Z,99137.81
2023-09-08T05:39:26.554Z,99139.50
2023-09-08T05:41:53.290Z,99133.34
2023-09-08T05:44:20.025Z,99139.38
2023-09-08T05:46:46.931Z,99141.00
2023-09-08T05:49:15.399Z,99140.84
2023-09-08T05:51:42.284Z,99147.91
2023-09-08T05:54:09.052Z,99150.38
2023-09-08T05:56:35.847Z,99142.47
2023-09-08T05:59:02.762Z,99146.56
2023-09-08T06:01:30.662Z,99141.28
2023-09-08T06:03:57.672Z,99146.41
2023-09-08T06:06:24.631Z,99143.72
2023-09-08T06:08:51.297Z,99141.06
2023-09-08T06:11:18.324Z,99151.97
2023-09-08T06:13:45.023Z,99147.00
2023-09-08T06:16:11.826Z,99140.97
2023-09-08T06:18:41.593Z,99142.75
2023-09-08T06:21:08.693Z,99143.75
2023-09-08T06:23:37.845Z,99153.31
2023-09-08T06:26:04.925Z,99145.38
2023-09-08T06:28:31.778Z,99149.69
2023-09-08T06:30:58.655Z,99145.94
2023-09-08T06:33:25.936Z,99145.38
2023-09-08T06:35:55.038Z,99152.94
2023-09-08T06:38:21.978Z,99150.88
2023-09-08T06:40:49.338Z,99157.53
2023-09-08T06:43:16.115Z,99147.50
2023-09-08T06:45:42.839Z,99147.28
2023-09-08T06:48:09.682Z,99144.34
2023-09-08T06:50:36.544Z,99146.09
2023-09-08T06:53:03.337Z,99153.72
2023-09-08T06:55:30.141Z,99152.59
2023-09-08T06:57:56.954Z,99145.47
2023-09-08T07:00:23.708Z,99146.94
2023-09-08T07:02:53.524Z,99151.06
2023-09-08T07:05:20.438Z,99149.22
2023-09-08T07:07:49.413Z,99141.41
2023-09-08T07:10:16.185Z,99149.13
2023-09-08T07:12:42.897Z,99138.03
2023-09-08T07:15:10.588Z,99145.63
2023-09-08T07:17:37.383Z,99144.38
2023-09-08T07:20:04.644Z,99146.75
2023-09-08T07:22:31.375Z,99148.47
2023-09-08T07:24:58.058Z,99150.97
2023-09-08T07:27:24.810Z,99141.16
2023-09-08T07:29:51.506Z,99139.47
2023-09-08T07:32:19.136Z,99137.97
2023-09-08T07:34:45.968Z,99132.28
2023-09-08T07:37:12.760Z,99131.72
2023-09-08T07:39:39.529Z,99126.19
2023-09-08T07:42:06.345Z,99129.50
2023-09-08T07:44:33.251Z,99128.63
2023-09-08T07:47:00.065Z,99127.75
2023-09-08T07:49:26.844Z,99123.56
2023-09-08T07:51:53.630Z,99129.00
2023-09-08T07:54:20.948Z,99132.41
2023-09-08T07:56:48.302Z,99125.69
2023-09-08T07:59:15.148Z,99120.69
2023-09-08T08:01:42.039Z,99125.50
2023-09-08T08:04:09.029Z,99130.28
2023-09-08T08:06:36.165Z,99124.31
2023-09-08T08:09:03.395Z,99125.38
2023-09-08T08:11:30.347Z,99129.59
2023-09-08T08:13:58.078Z,99132.75
2023-09-08T08:16:25.664Z,99131.31
2023-09-08T08:18:52.933Z,99128.31
2023-09-08T08:21:19.917Z,99128.69
2023-09-08T08:23:46.724Z,99127.47
2023-09-08T08:26:13.382Z,99122.53
2023-09-08T08:28:40.123Z,99115.69
2023-09-08T08:31:06.947Z,99122.91
2023-09-08T08:33:33.929Z,99119.50
2023-09-08T08:36:01.576Z,99124.31
2023-09-08T08:38:28.500Z,99120.44
2023-09-08T08:40:55.280Z,99111.31
2023-09-08T08:43:23.769Z,99119.50
2023-09-08T08:45:51.620Z,99112.25
2023-09-08T08:48:22.101Z,99104.13
2023-09-08T08:50:49.385Z,99101.97
2023-09-08T08:53:18.593Z,99111.06
2023-09-08T08:55:47.114Z,99112.50
2023-09-08T08:58:15.887Z,99110.81
2023-09-08T09:00:43.498Z,99096.50
2023-09-08T09:03:15.256Z,99095.41
2023-09-08T09:05:46.646Z,99093.94
2023-09-08T09:08:30.558Z,99088.97
2023-09-08T09:10:57.297Z,99087.91
2023-09-08T09:13:23.994Z,99085.00
2023-09-08T09:15:52.038Z,99091.72
2023-09-08T09:18:18.929Z,99081.69
2023-09-08T09:20:56.571Z,99081.59
2023-09-08T09:23:33.888Z,99079.50
2023-09-08T09:26:02.391Z,99085.38
2023-09-08T09:28:32.356Z,99087.19
2023-09-08T09:31:00.628Z,99077.31
2023-09-08T09:33:29.254Z,99083.91
2023-09-08T09:35:56.163Z,99077.41
2023-09-08T09:38:23.221Z,99077.41
2023-09-08T09:40:50.704Z,99064.75
2023-09-08T09:43:18.288Z,99064.63
2023-09-08T09:45:45.451Z,99065.09
2023-09-08T09:48:13.568Z,99066.63
2023-09-08T09:50:42.398Z,99055.75
2023-09-08T09:53:13.055Z,99061.63
2023-09-08T09:55:41.892Z,99057.78
2023-09-08T09:58:12.004Z,99053.88
2023-09-08T10:00:40.751Z,99053.59
2023-09-08T10:03:08.342Z,99050.81
2023-09-08T10:05:35.355Z,99058.25
2023-09-08T10:08:02.272Z,99050.19
2023-09-08T10:10:31.702Z,99053.41
2023-09-08T10:13:03.871Z,99051.31
2023-09-08T10:15:32.897Z,99049.50
2023-09-08T10:18:01.475Z,99045.63
2023-09-08T10:20:30.035Z,99047.28
2023-09-08T10:23:13.198Z,99049.81
2023-09-08T10:25:45.155Z,99041.59
2023-09-08T10:28:14.312Z,99043.97
2023-09-08T10:30:41.897Z,99035.75
2023-09-08T10:33:10.158Z,99033.97
2023-09-08T10:35:37.398Z,99036.19
2023-09-08T10:38:29.893Z,99034.00
2023-09-08T10:41:18.620Z,99041.53
2023-09-08T10:43:55.602Z,99032.50
2023-09-08T10:46:23.964Z,99033.59
2023-09-08T10:48:50.853Z,99023.69
2023-09-08T10:51:20.348Z,99021.75
2023-09-08T10:53:53.174Z,99025.94
2023-09-08T10:56:19.970Z,99018.69
2023-09-08T10:58:55.596Z,99014.81
2023-09-08T11:01:28.771Z,99010.88
2023-09-08T11:03:56.086Z,99018.56
2023-09-08T11:06:23.763Z,99013.69
2023-09-08T11:08:54.559Z,99009.09
2023-09-08T11:11:21.680Z,99008.94
2023-09-08T11:13:48.615Z,99008.66
2023-09-08T11:16:16.738Z,99010.91
2023-09-08T11:18:46.549Z,99007.00
2023-09-08T11:21:13.445Z,99005.03
2023-09-08T11:23:40.340Z,99008.69
2023-09-08T11:26:07.781Z,99009.22
2023-09-08T11:28:35.095Z,99009.22
2023-09-08T11:31:04.428Z,99003.66
2023-09-08T11:33:36.205Z,99007.00
2023-09-08T11:36:03.037Z,99007.56
2023-09-08T11:38:31.151Z,99005.59
2023-09-08T11:40:59.921Z,99008.97
2023-09-08T11:43:28.023Z,99005.91
2023-09-08T11:45:54.941Z,99002.16
2023-09-08T11:48:21.793Z,99001.44
2023-09-08T11:50:48.468Z,98993.19
2023-09-08T11:53:20.856Z,98989.56
2023-09-08T11:55:48.074Z,98987.59
2023-09-08T11:58:15.815Z,98988.31
2023-09-08T12:00:42.765Z,98983.72
2023-09-08T12:03:13.904Z,98984.38
2023-09-08T12:05:41.223Z,98970.00
2023-09-08T12:08:07.988Z,98975.16
2023-09-08T12:10:44.473Z,98976.16
2023-09-08T12:13:11.553Z,98974.16
2023-09-08T12:15:40.310Z,98972.22
2023-09-08T12:18:07.388Z,98967.59
2023-09-08T12:20:34.732Z,98972.78
2023-09-08T12:23:04.181Z,98966.22
2023-09-08T12:25:36.860Z,98966.06
2023-09-08T12:28:06.027Z,98957.81
2023-09-08T12:30:34.342Z,98956.00
2023-09-08T12:33:02.960Z,98952.22
2023-09-08T12:35:32.416Z,98948.56
2023-09-08T12:38:06.713Z,98950.09
2023-09-08T12:40:37.997Z,98952.47
2023-09-08T12:43:12.132Z,98942.69
2023-09-08T12:45:51.184Z,98947.00
2023-09-08T12:48:17.918Z,98947.84
2023-09-08T12:50:44.638Z,98941.41
2023-09-08T12:53:11.304Z,98937.63
2023-09-08T12:55:38.010Z,98933.97
2023-09-08T12:58:04.998Z,98926.72
2023-09-08T13:00:31.761Z,98929.53
2023-09-08T13:02:58.533Z,98928.38
2023-09-08T13:05:25.319Z,98931.88
2023-09-08T13:07:52.143Z,98929.22
2023-09-08T13:10:18.942Z,98919.28
2023-09-08T13:12:46.338Z,98918.31
2023-09-08T13:15:13.166Z,98916.34
2023-09-08T13:17:39.918Z,98913.38
2023-09-08T13:20:07.890Z,98906.25
2023-09-08T13:22:35.537Z,98906.25
2023-09-08T13:25:02.747Z,98904.59
2023-09-08T13:27:29.477Z,98899.28
2023-09-08T13:30:08.410Z,98903.75
2023-09-08T13:32:35.564Z,98897.47
2023-09-08T13:35:02.419Z,98891.31
2023-09-08T13:37:29.276Z,98900.09
2023-09-08T13:39:56.113Z,98909.78
2023-09-08T13:42:22.974Z,98901.81
2023-09-08T13:44:50.204Z,98887.69
2023-09-08T13:47:16.950Z,98882.53
2023-09-08T13:49:44.466Z,98884.19
2023-09-08T13:52:12.855Z,98883.38
2023-09-08T13:54:45.206Z,98883.63
2023-09-08T13:57:14.126Z,98881.53
2023-09-08T13:59:43.500Z,98883.91
2023-09-08T14:02:38.250Z,98882.94
2023-09-08T14:05:02.593Z,98879.13
2023-09-08T14:10:06.557Z,98877.31
2023-09-08T14:12:37.898Z,98870.22
2023-09-08T14:15:05.857Z,98869.22
2023-09-08T14:17:32.696Z,98872.03
2023-09-08T14:19:59.475Z,98871.03
2023-09-08T14:22:27.840Z,98870.22
2023-09-08T14:24:54.731Z,98861.28
2023-09-08T14:27:21.426Z,98865.34
2023-09-08T14:29:48.199Z,98863.00
2023-09-08T14:32:15.025Z,98866.09
2023-09-08T14:34:41.780Z,98857.75
2023-09-08T14:37:11.361Z,98866.53
2023-09-08T14:39:38.638Z,98863.34
2023-09-08T14:42:06.872Z,98864.47
2023-09-08T14:44:33.852Z,98862.25
2023-09-08T14:47:00.671Z,98865.91
2023-09-08T14:49:27.328Z,98854.75
2023-09-08T14:51:53.986Z,98862.84
2023-09-08T14:54:20.681Z,98866.47
2023-09-08T14:56:47.415Z,98862.31
2023-09-08T14:59:14.122Z,98865.09
2023-09-08T15:01:42.090Z,98865.38
2023-09-08T15:04:09.047Z,98860.91
2023-09-08T15:06:35.922Z,98852.25
2023-09-08T15:09:02.727Z,98852.41
2023-09-08T15:11:29.801Z,98848.09
2023-09-08T15:13:56.578Z,98841.94
2023-09-08T15:16:23.390Z,98850.88
2023-09-08T15:18:51.305Z,98848.22
2023-09-08T15:21:18.976Z,98853.69
2023-09-08T15:23:46.451Z,98841.09
2023-09-08T15:26:13.194Z,98834.13
2023-09-08T15:28:40.045Z,98836.91
2023-09-08T15:31:06.884Z,98840.56
2023-09-08T15:33:33.733Z,98850.34
2023-09-08T15:36:00.767Z,98837.22
2023-09-08T15:38:27.526Z,98838.19
2023-09-08T15:41:09.774Z,98839.03
2023-09-08T15:43:40.751Z,98844.47
2023-09-08T15:46:09.194Z,98843.78
2023-09-08T15:48:36.805Z,98836.66
2023-09-08T15:51:04.296Z,98836.66
2023-09-08T15:53:32.052Z,98847.28
2023-09-08T15:55:59.120Z,98841.13
2023-09-08T15:58:25.997Z,98838.63
2023-09-08T16:00:52.799Z,98840.31
2023-09-08T16:03:19.704Z,98838.63
2023-09-08T16:05:46.665Z,98833.31
2023-09-08T16:08:13.390Z,98839.63
2023-09-08T16:10:40.165Z,98830.81
2023-09-08T16:13:06.895Z,98833.59
2023-09-08T16:15:33.777Z,98833.59
2023-09-08T16:18:01.292Z,98832.88
2023-09-08T16:20:28.252Z,98833.19
2023-09-08T16:22:54.992Z,98836.13
2023-09-08T16:25:21.806Z,98829.13
2023-09-08T16:27:48.570Z,98833.06
2023-09-08T16:30:15.460Z,98830.41
2023-09-08T16:32:42.240Z,98832.22
2023-09-08T16:56:10.301Z,98826.97
2023-09-08T16:58:37.333Z,98825.59
2023-09-08T17:01:06.988Z,98830.91
2023-09-08T17:03:33.798Z,98824.47
2023-09-08T17:06:00.669Z,98823.09
2023-09-08T17:08:28.864Z,98825.34
2023-09-08T17:10:57.336Z,98822.41
2023-09-08T17:13:25.037Z,98821.13
2023-09-08T17:15:51.883Z,98823.66
2023-09-08T17:18:20.707Z,98830.19
2023-09-08T17:20:49.784Z,98836.75
2023-09-08T17:23:16.479Z,98838.69
2023-09-08T17:25:44.660Z,98830.19
2023-09-08T17:28:12.194Z,98837.56
2023-09-08T17:30:39.054Z,98836.19
2023-09-08T17:33:06.017Z,98834.91
2023-09-08T17:35:36.350Z,98831.97
2023-09-08T17:38:03.538Z,98840.59
2023-09-08T17:40:30.365Z,98844.63
2023-09-08T17:42:59.859Z,98842.75
2023-09-08T17:45:26.649Z,98843.56
2023-09-08T18:00:26.364Z,98858.66
2023-09-08T18:02:53.126Z,98867.66
2023-09-08T18:05:20.088Z,98864.00
2023-09-08T18:07:46.809Z,98868.41
2023-09-08T18:10:15.143Z,98870.25
2023-09-08T18:12:42.516Z,98871.84
2023-09-08T18:15:11.661Z,98879.59
2023-09-08T18:17:38.538Z,98873.97
2023-09-08T18:20:05.763Z,98877.50
2023-09-08T18:22:33.126Z,98878.28
2023-09-08T18:25:01.881Z,98870.97
2023-09-08T18:27:31.222Z,98875.09
2023-09-08T18:29:58.177Z,98866.91
2023-09-08T18:32:25.095Z,98866.44
2023-09-08T18:34:54.459Z,98867.06
2023-09-08T18:37:21.694Z,98868.38
2023-09-08T18:39:48.421Z,98875.97
2023-09-08T18:42:15.176Z,98875.75
2023-09-08T18:44:43.583Z,98872.63
2023-09-08T18:47:11.335Z,98870.63
2023-09-08T18:49:38.180Z,98878.06
2023-09-08T18:52:05.940Z,98876.00
2023-09-08T18:54:33.319Z,98872.91
2023-09-08T18:57:00.271Z,98872.28
2023-09-08T18:59:27.053Z,98883.34
2023-09-08T19:01:54.641Z,98882.69
2023-09-08T19:04:21.495Z,98886.31
2023-09-08T19:06:48.169Z,98889.06
2023-09-08T19:09:14.861Z,98890.25
2023-09-08T19:11:41.758Z,98889.88
2023-09-08T19:14:08.523Z,98892.41
2023-09-08T19:16:35.281Z,98890.00
2023-09-08T19:19:02.030Z,98890.94
2023-09-08T19:21:31.041Z,98889.41
2023-09-08T19:23:57.758Z,98893.31
2023-09-08T19:26:24.499Z,98892.84
2023-09-08T19:28:51.218Z,98887.06
2023-09-08T19:31:18.063Z,98894.28
2023-09-08T19:33:44.878Z,98892.22
2023-09-08T19:36:11.877Z,98895.56
2023-09-08T19:38:38.516Z,98897.56
2023-09-08T19:41:05.576Z,98894.19
2023-09-08T19:43:32.689Z,98896.09
2023-09-08T19:46:06.073Z,98896.31
2023-09-08T19:48:36.278Z,98891.28
2023-09-08T19:51:06.881Z,98895.81
2023-09-08T19:53:33.617Z,98895.06
2023-09-08T19:56:00.477Z,98887.16
2023-09-08T19:58:30.597Z,98891.31
2023-09-08T20:01:08.051Z,98889.66
2023-09-08T20:03:35.694Z,98885.91
2023-09-08T20:06:03.869Z,98883.97
2023-09-08T20:08:30.811Z,98894.91
2023-09-08T20:10:57.472Z,98894.63
2023-09-08T20:13:24.155Z,98890.75
2023-09-08T20:16:06.492Z,98890.25
2023-09-08T20:18:34.397Z,98881.13
2023-09-08T20:21:06.208Z,98887.31
2023-09-08T20:23:37.105Z,98887.78
2023-09-08T20:26:04.189Z,98889.00
2023-09-08T20:28:32.997Z,98899.97
2023-09-08T20:31:14.859Z,98903.75
2023-09-08T20:33:43.931Z,98893.78
2023-09-08T20:36:10.714Z,98901.91
2023-09-08T20:38:39.224Z,98899.38
2023-09-08T20:41:06.628Z,98890.34
2023-09-08T20:43:34.632Z,98897.47
2023-09-08T20:46:04.804Z,98900.34
2023-09-08T20:48:33.192Z,98894.22
2023-09-08T20:51:04.270Z,98898.97
2023-09-08T20:53:31.377Z,98898.31
2023-09-08T20:55:59.133Z,98903.06
2023-09-08T20:58:27.255Z,98899.91
2023-09-08T21:00:59.997Z,98893.72
2023-09-08T21:03:26.719Z,98892.00
2023-09-08T21:05:53.432Z,98893.94
2023-09-08T21:08:20.927Z,98895.06
2023-09-08T21:10:48.382Z,98905.69
2023-09-08T21:13:15.308Z,98901.47
2023-09-08T21:15:43.059Z,98896.63
2023-09-08T21:18:10.223Z,98896.09
2023-09-08T21:20:37.226Z,98905.06
2023-09-08T21:23:04.346Z,98895.75
2023-09-08T21:25:35.274Z,98893.22
2023-09-08T21:28:02.917Z,98903.22
2023-09-08T21:30:30.798Z,98903.53
2023-09-08T21:32:57.601Z,98901.19
2023-09-08T21:35:27.401Z,98904.13
2023-09-08T21:37:54.293Z,98904.13
2023-09-08T21:40:21.063Z,98903.59
2023-09-08T21:42:47.802Z,98905.47
2023-09-08T21:45:14.858Z,98906.72
2023-09-08T21:47:41.888Z,98906.81
2023-09-08T21:50:09.269Z,98901.03
2023-09-08T21:52:38.888Z,98906.47
2023-09-08T21:55:07.456Z,98906.56
2023-09-08T21:57:34.435Z,98905.09
2023-09-08T22:00:01.197Z,98899.31
2023-09-08T22:02:28.001Z,98905.41
2023-09-08T22:04:55.905Z,98911.13
2023-09-08T22:07:22.861Z,98903.34
2023-09-08T22:09:52.019Z,98907.75
2023-09-08T22:12:18.723Z,98900.38
2023-09-08T22:14:45.410Z,98897.22
2023-09-08T22:17:12.385Z,98903.47
2023-09-08T22:19:39.117Z,98897.69
2023-09-08T22:22:06.025Z,98897.69
2023-09-08T22:24:33.150Z,98891.63
2023-09-08T22:27:01.396Z,98896.28
2023-09-08T22:29:28.108Z,98891.84
2023-09-08T22:31:54.874Z,98892.03
2023-09-08T22:34:21.791Z,98893.28
2023-09-08T22:36:48.703Z,98895.28
2023-09-08T22:39:15.413Z,98898.91
2023-09-08T22:41:43.900Z,98893.88
2023-09-08T22:44:10.679Z,98893.88
2023-09-08T22:46:37.484Z,98886.94
2023-09-08T22:49:04.941Z,98890.47
2023-09-08T22:51:32.718Z,98896.59
2023-09-08T22:53:59.409Z,98889.94
2023-09-08T22:56:26.877Z,98894.44
2023-09-08T22:58:56.470Z,98892.09
2023-09-08T23:01:25.551Z,98887.78
2023-09-08T23:03:52.439Z,98894.16
2023-09-08T23:06:21.204Z,98891.81
2023-09-08T23:08:47.854Z,98897.25
2023-09-08T23:11:14.650Z,98888.84
2023-09-08T23:13:41.631Z,98892.41
2023-09-08T23:16:14.949Z,98894.28
2023-09-08T23:18:41.954Z,98895.09
2023-09-08T23:21:08.826Z,98892.75
2023-09-08T23:23:36.225Z,98893.34
2023-09-08T23:26:05.892Z,98898.00
2023-09-08T23:28:32.626Z,98895.38
2023-09-08T23:30:59.450Z,98887.63
2023-09-08T23:33:26.266Z,98880.00
2023-09-08T23:35:56.160Z,98886.28
2023-09-08T23:38:22.828Z,98890.88
2023-09-08T23:40:49.504Z,98893.50
2023-09-08T23:43:16.203Z,98886.81
2023-09-08T23:45:46.736Z,98885.97
2023-09-08T23:48:13.743Z,98881.00
2023-09-08T23:50:49.607Z,98881.75
2023-09-08T23:53:16.349Z,98878.75
2023-09-08T23:55:43.006Z,98886.59
2023-09-08T23:58:09.718Z,98881.84
